Time;durP1;ratioP1;P1;durP2;ratioP2;P2;SDS_P1;SDS_P2;PMS_P1;PMS_P2;Temp;Humidity;BMP_temperature;BMP_pressure;BME280_temperature;BME280_humidity;BME280_pressure;Samples;Min_cycle;Max_cycle;Signal;HPM_P1;HPM_P2
2022/05/02 00:00:57;;;;;;;9.70;8.55;;;;;;;9.77;nan;99585.41;5012260;28;20363;-88
2022/05/02 00:03:23;;;;;;;8.50;7.70;;;;;;;9.70;nan;99587.56;5003437;28;22073;-89
2022/05/02 00:05:56;;;;;;;10.70;8.57;;;;;;;9.67;nan;99590.38;5005461;28;20542;-88
2022/05/02 00:08:22;;;;;;;11.03;8.67;;;;;;;9.69;nan;99587.63;5024283;28;20607;-89
2022/05/02 00:10:50;;;;;;;9.77;8.87;;;;;;;9.71;nan;99593.63;5016239;28;20202;-88
2022/05/02 00:13:16;;;;;;;11.05;7.75;;;;;;;9.70;nan;99584.09;5010029;28;20203;-89
2022/05/02 00:15:42;;;;;;;9.83;7.97;;;;;;;9.68;nan;99580.72;5006645;28;20214;-89
2022/05/02 00:18:08;;;;;;;8.27;6.40;;;;;;;9.63;nan;99582.78;5005861;28;20500;-90
2022/05/02 00:20:36;;;;;;;9.32;7.90;;;;;;;9.62;nan;99575.84;5006709;28;20290;-90
2022/05/02 00:23:05;;;;;;;10.27;8.80;;;;;;;9.53;nan;99574.59;4994760;28;20712;-89
2022/05/02 00:25:34;;;;;;;9.40;7.85;;;;;;;9.44;nan;99568.13;5005084;28;20199;-89
2022/05/02 00:28:00;;;;;;;10.02;8.23;;;;;;;9.42;nan;99570.00;4998708;28;20203;-89
2022/05/02 00:30:26;;;;;;;9.53;8.53;;;;;;;9.45;nan;99568.97;5015044;28;20229;-88
2022/05/02 00:32:52;;;;;;;8.20;7.50;;;;;;;9.41;nan;99560.44;5005761;28;20465;-89
2022/05/02 00:35:18;;;;;;;7.97;7.05;;;;;;;9.41;nan;99565.69;5013047;28;20288;-88
2022/05/02 00:37:47;;;;;;;10.63;7.70;;;;;;;9.41;nan;99564.84;5013142;28;20562;-88
2022/05/02 00:40:24;;;;;;;9.90;8.40;;;;;;;9.42;nan;99561.28;5011720;28;20293;-89
2022/05/02 00:42:50;;;;;;;10.77;7.68;;;;;;;9.39;nan;99564.94;5004795;28;20748;-90
2022/05/02 00:45:18;;;;;;;10.63;8.15;;;;;;;9.37;nan;99560.72;5001086;28;20246;-88
2022/05/02 00:47:55;;;;;;;8.50;7.38;;;;;;;9.33;nan;99562.69;5002244;28;20890;-89
2022/05/02 00:50:36;;;;;;;9.50;8.40;;;;;;;9.28;nan;99557.72;5002310;28;20206;-88
2022/05/02 00:53:14;;;;;;;7.30;6.57;;;;;;;9.24;nan;99564.06;5001494;28;20211;-89
2022/05/02 00:55:40;;;;;;;7.00;6.30;;;;;;;9.17;nan;99567.16;5003790;28;20215;-89
2022/05/02 00:58:07;;;;;;;8.68;7.78;;;;;;;9.07;nan;99572.94;4993566;28;20230;-88
2022/05/02 01:00:38;;;;;;;7.25;6.25;;;;;;;8.98;nan;99568.22;5004075;28;20793;-89
2022/05/02 01:03:06;;;;;;;7.93;7.13;;;;;;;8.90;nan;99559.94;5003241;28;20309;-89
2022/05/02 01:07:08;;;;;;;7.15;6.25;;;;;;;8.86;nan;99559.28;5002043;28;20219;-87
2022/05/02 01:08:33;;;;;;;9.25;7.72;;;;;;;8.86;nan;99556.66;5002944;28;20200;-88
2022/05/02 01:11:00;;;;;;;7.90;6.13;;;;;;;8.86;nan;99563.69;4987511;28;20325;-90
2022/05/02 01:13:38;;;;;;;8.43;6.63;;;;;;;8.84;nan;99565.53;5007349;28;20310;-88
2022/05/02 01:16:28;;;;;;;10.07;6.85;;;;;;;8.81;nan;99566.56;4989226;28;20210;-88
2022/05/02 01:18:57;;;;;;;7.32;6.60;;;;;;;8.75;nan;99560.81;5007263;28;20211;-90
2022/05/02 01:21:49;;;;;;;8.13;6.40;;;;;;;8.68;nan;99560.34;5005979;28;20206;-89
2022/05/02 01:24:14;;;;;;;8.25;6.95;;;;;;;8.65;nan;99555.28;5004747;28;20277;-89
2022/05/02 01:26:42;;;;;;;8.50;6.60;;;;;;;8.68;nan;99555.09;5005963;28;20231;-89
2022/05/02 01:29:07;;;;;;;8.98;8.13;;;;;;;8.68;nan;99564.72;5005600;28;20565;-88
2022/05/02 01:31:33;;;;;;;9.20;8.40;;;;;;;8.67;nan;99561.28;5005831;28;20513;-89
2022/05/02 01:34:04;;;;;;;7.05;6.35;;;;;;;8.72;nan;99561.00;5006500;28;20237;-88
2022/05/02 01:36:30;;;;;;;8.20;6.40;;;;;;;8.71;nan;99561.94;5005549;28;20222;-88
2022/05/02 01:38:58;;;;;;;8.50;6.40;;;;;;;8.63;nan;99552.72;4994121;28;20298;-88
2022/05/02 01:41:26;;;;;;;8.93;7.40;;;;;;;8.56;nan;99554.03;4995275;28;20292;-88
2022/05/02 01:44:02;;;;;;;6.93;6.22;;;;;;;8.50;nan;99561.34;5006724;28;20699;-89
2022/05/02 01:46:27;;;;;;;8.50;6.63;;;;;;;8.50;nan;99556.13;5006391;28;20214;-87
2022/05/02 01:48:55;;;;;;;7.10;6.40;;;;;;;8.50;nan;99558.75;5006355;28;20202;-88
2022/05/02 01:51:21;;;;;;;11.77;5.85;;;;;;;8.50;nan;99543.88;5004756;28;20736;-88
2022/05/02 01:53:46;;;;;;;10.27;6.47;;;;;;;8.49;nan;99554.44;5004788;28;20230;-88
2022/05/02 01:56:14;;;;;;;8.47;6.00;;;;;;;8.44;nan;99546.84;5006687;28;20202;-88
2022/05/02 01:58:43;;;;;;;7.38;5.75;;;;;;;8.38;nan;99552.41;5006475;28;20206;-88
2022/05/02 02:07:00;;;;;;;7.47;5.38;;;;;;;8.16;nan;99550.97;4986740;28;20224;-76
2022/05/02 02:09:25;;;;;;;7.23;5.50;;;;;;;8.15;nan;99549.25;4987626;28;20215;-75
2022/05/02 02:11:51;;;;;;;6.67;5.23;;;;;;;8.14;nan;99547.56;4986621;28;20207;-77
2022/05/02 02:14:17;;;;;;;7.00;4.83;;;;;;;8.12;nan;99552.03;4987404;28;20211;-76
2022/05/02 02:19:33;;;;;;;8.32;6.22;;;;;;;8.11;nan;99552.13;4959635;28;20287;-72
2022/05/02 02:22:16;;;;;;;8.23;7.33;;;;;;;8.09;nan;99549.59;4945056;28;20208;-73
2022/05/02 02:24:44;;;;;;;6.20;5.60;;;;;;;8.07;nan;99551.44;4968371;28;20224;-72
2022/05/02 02:27:09;;;;;;;6.60;5.95;;;;;;;8.00;nan;99547.50;4967150;28;20220;-71
2022/05/02 02:29:34;;;;;;;6.57;4.73;;;;;;;7.88;nan;99550.75;4955867;28;20221;-73
2022/05/02 02:32:00;;;;;;;8.23;5.60;;;;;;;7.80;nan;99548.53;4954389;28;20540;-70
2022/05/02 02:34:29;;;;;;;7.80;6.35;;;;;;;7.67;nan;99550.97;4959322;28;20479;-72
2022/05/02 02:36:54;;;;;;;5.90;5.28;;;;;;;7.57;nan;99547.16;4962254;28;20208;-72
2022/05/02 02:39:20;;;;;;;7.50;6.33;;;;;;;7.51;nan;99555.31;4958005;28;20215;-70
2022/05/02 02:41:45;;;;;;;6.53;5.87;;;;;;;7.50;nan;99546.59;4951065;28;20267;-73
2022/05/02 02:44:10;;;;;;;13.50;7.77;;;;;;;7.44;nan;99543.47;4958144;28;20633;-70
2022/05/02 02:46:36;;;;;;;7.53;6.47;;;;;;;7.39;nan;99545.47;4955391;28;20209;-70
2022/05/02 02:49:01;;;;;;;10.43;8.70;;;;;;;7.38;nan;99549.03;4961173;28;20216;-72
2022/05/02 02:51:27;;;;;;;9.50;6.70;;;;;;;7.38;nan;99538.56;4950649;28;20232;-70
2022/05/02 02:53:52;;;;;;;10.90;7.83;;;;;;;7.41;nan;99538.41;4957634;28;20216;-70
2022/05/02 02:56:17;;;;;;;11.20;7.67;;;;;;;7.41;nan;99541.88;4956067;28;20252;-70
2022/05/02 02:58:43;;;;;;;14.47;9.70;;;;;;;7.43;nan;99541.81;4957623;28;20733;-70
2022/05/02 03:01:08;;;;;;;9.60;8.37;;;;;;;7.40;nan;99534.09;4950328;28;20235;-70
2022/05/02 03:03:34;;;;;;;14.07;9.27;;;;;;;7.37;nan;99532.50;4948020;28;20224;-72
2022/05/02 03:06:02;;;;;;;9.97;7.40;;;;;;;7.36;nan;99529.97;4947814;28;20217;-70
2022/05/02 03:08:29;;;;;;;9.40;6.85;;;;;;;7.28;nan;99533.81;4950536;28;20260;-72
2022/05/02 03:10:56;;;;;;;11.48;7.47;;;;;;;7.19;nan;99531.69;4956355;28;20266;-70
2022/05/02 03:13:21;;;;;;;10.77;8.82;;;;;;;7.10;nan;99526.91;4976563;28;20220;-71
2022/05/02 03:15:47;;;;;;;11.40;9.00;;;;;;;7.07;nan;99524.44;4947695;28;20232;-71
2022/05/02 03:18:13;;;;;;;10.93;9.60;;;;;;;7.06;nan;99512.31;4967778;28;20327;-70
2022/05/02 03:20:38;;;;;;;12.73;9.13;;;;;;;7.07;nan;99517.47;4979773;28;20458;-70
2022/05/02 03:23:04;;;;;;;10.07;7.87;;;;;;;7.04;nan;99520.22;4966312;28;20679;-70
2022/05/02 03:25:29;;;;;;;11.20;8.33;;;;;;;7.01;nan;99519.53;4975472;28;20225;-70
2022/05/02 03:27:54;;;;;;;9.73;8.80;;;;;;;6.95;nan;99514.63;4975670;28;20239;-70
2022/05/02 03:30:20;;;;;;;13.47;9.03;;;;;;;6.85;nan;99540.34;4982155;28;20225;-72
2022/05/02 03:32:45;;;;;;;14.50;10.90;;;;;;;6.87;nan;99513.25;4970015;28;20508;-70
2022/05/02 03:35:11;;;;;;;14.50;9.93;;;;;;;6.93;nan;99513.88;4976650;28;20358;-71
2022/05/02 03:37:37;;;;;;;12.87;10.50;;;;;;;6.94;nan;99519.03;4966455;28;20243;-72
2022/05/02 03:40:03;;;;;;;13.77;9.50;;;;;;;6.93;nan;99517.31;4971584;28;20580;-71
2022/05/02 03:42:28;;;;;;;12.53;8.93;;;;;;;6.88;nan;99514.09;4965658;28;20729;-70
2022/05/02 03:44:53;;;;;;;17.93;10.03;;;;;;;6.85;nan;99515.06;4969557;28;20505;-72
2022/05/02 03:47:19;;;;;;;10.63;8.07;;;;;;;6.86;nan;99506.34;4968752;28;20254;-71
2022/05/02 03:49:44;;;;;;;13.23;9.27;;;;;;;6.92;nan;99512.19;4965921;28;20217;-71
2022/05/02 03:52:10;;;;;;;8.13;7.23;;;;;;;6.93;nan;99512.09;4974603;28;20307;-70
2022/05/02 03:54:35;;;;;;;12.33;10.90;;;;;;;6.91;nan;99515.69;4972094;28;20831;-70
2022/05/02 03:57:01;;;;;;;10.10;9.00;;;;;;;6.84;nan;99513.41;4971484;28;20254;-72
2022/05/02 03:59:26;;;;;;;8.97;7.40;;;;;;;6.85;nan;99517.69;4985454;28;20246;-70
2022/05/02 04:01:52;;;;;;;10.97;7.73;;;;;;;6.83;nan;99510.84;4977012;28;20199;-72
2022/05/02 04:04:17;;;;;;;12.20;9.17;;;;;;;6.80;nan;99518.84;4965835;28;20235;-71
2022/05/02 04:06:42;;;;;;;14.77;9.93;;;;;;;6.73;nan;99520.09;4981648;28;20212;-70
2022/05/02 04:09:08;;;;;;;12.80;9.47;;;;;;;6.59;nan;99520.78;4968223;28;20267;-71
2022/05/02 04:11:33;;;;;;;14.30;9.30;;;;;;;6.53;nan;99518.44;4980342;28;20199;-71
2022/05/02 04:13:59;;;;;;;20.20;9.27;;;;;;;6.54;nan;99520.13;4973802;28;20216;-72
2022/05/02 04:16:24;;;;;;;13.00;8.37;;;;;;;6.58;nan;99513.84;4967420;28;20226;-70
2022/05/02 04:18:49;;;;;;;12.57;9.60;;;;;;;6.60;nan;99515.44;4965444;28;20273;-70
2022/05/02 04:21:16;;;;;;;11.45;8.85;;;;;;;6.61;nan;99519.75;4968301;28;20657;-71
2022/05/02 04:23:41;;;;;;;11.57;7.57;;;;;;;6.64;nan;99523.97;4976115;28;20319;-70
2022/05/02 04:26:07;;;;;;;13.23;10.07;;;;;;;6.69;nan;99521.16;4979072;28;20211;-72
2022/05/02 04:28:34;;;;;;;10.60;9.53;;;;;;;6.72;nan;99519.22;4973356;28;20664;-71
2022/05/02 04:30:59;;;;;;;11.18;8.95;;;;;;;6.79;nan;99522.38;4972390;28;20204;-71
2022/05/02 04:33:25;;;;;;;13.03;8.53;;;;;;;6.86;nan;99521.19;4956025;28;20573;-71
2022/05/02 04:35:50;;;;;;;14.20;9.27;;;;;;;6.94;nan;99529.47;4981244;28;20203;-70
2022/05/02 04:38:15;;;;;;;12.77;9.37;;;;;;;7.01;nan;99524.75;4972192;28;20232;-70
2022/05/02 04:40:41;;;;;;;11.97;8.83;;;;;;;7.06;nan;99523.59;4971594;28;20674;-71
2022/05/02 04:43:06;;;;;;;13.27;9.40;;;;;;;7.12;nan;99521.63;4974800;28;20200;-70
2022/05/02 04:45:32;;;;;;;13.20;10.27;;;;;;;7.16;nan;99526.63;4976466;28;20869;-70
2022/05/02 04:47:57;;;;;;;10.50;8.17;;;;;;;7.22;nan;99530.69;4974112;28;20239;-71
2022/05/02 04:50:23;;;;;;;12.37;8.90;;;;;;;7.25;nan;99528.75;4971285;28;20588;-70
2022/05/02 04:52:49;;;;;;;10.88;8.23;;;;;;;7.26;nan;99530.47;4988207;28;20215;-72
2022/05/02 04:55:14;;;;;;;13.33;9.93;;;;;;;7.31;nan;99528.41;4982343;28;20207;-70
2022/05/02 04:57:40;;;;;;;11.97;9.20;;;;;;;7.51;nan;99518.72;4972002;28;20231;-71
2022/05/02 05:00:06;;;;;;;10.80;8.50;;;;;;;7.85;nan;99522.16;4983811;28;20463;-70
2022/05/02 05:02:32;;;;;;;16.30;9.68;;;;;;;8.36;nan;99512.38;4968260;28;20497;-71
2022/05/02 05:04:57;;;;;;;11.43;8.97;;;;;;;8.83;nan;99516.69;4981274;28;20231;-70
2022/05/02 05:07:23;;;;;;;12.60;9.87;;;;;;;9.28;nan;99510.53;4982874;28;20232;-70
2022/05/02 05:09:48;;;;;;;11.20;7.50;;;;;;;9.77;nan;99516.34;4981054;28;20208;-70
2022/05/02 05:12:17;;;;;;;8.17;6.83;;;;;;;10.09;nan;99509.94;4985067;28;20454;-70
2022/05/02 05:17:53;;;;;;;8.15;7.28;;;;;;;10.15;nan;99513.94;4975658;28;20735;-70
2022/05/02 05:20:37;;;;;;;9.35;7.40;;;;;;;10.01;nan;99514.81;4968582;28;20231;-71
2022/05/02 05:23:08;;;;;;;7.93;6.82;;;;;;;9.88;nan;99522.66;4978782;28;20215;-70
2022/05/02 05:25:52;;;;;;;8.35;5.90;;;;;;;9.84;nan;99523.75;4976490;28;20240;-70
2022/05/02 05:28:41;;;;;;;8.75;7.28;;;;;;;10.01;nan;99524.47;4980244;28;20239;-72
2022/05/02 05:31:31;;;;;;;7.90;7.20;;;;;;;10.25;nan;99517.69;4976339;28;20230;-70
2022/05/02 05:34:04;;;;;;;8.13;7.32;;;;;;;10.54;nan;99512.38;4981815;28;20256;-70
2022/05/02 05:36:32;;;;;;;9.23;7.00;;;;;;;10.92;nan;99515.13;4983905;28;20557;-70
2022/05/02 05:39:04;;;;;;;11.10;8.25;;;;;;;11.29;nan;99521.38;4974145;28;20215;-72
2022/05/02 05:41:39;;;;;;;13.75;9.05;;;;;;;11.70;nan;99517.69;4984047;28;20585;-72
2022/05/02 05:44:26;;;;;;;10.82;8.95;;;;;;;12.26;nan;99519.91;4981086;28;20484;-72
2022/05/02 05:47:06;;;;;;;12.18;9.07;;;;;;;12.86;nan;99514.69;4979330;28;20307;-71
2022/05/02 05:49:53;;;;;;;14.55;11.80;;;;;;;13.22;nan;99509.25;4969193;28;20206;-71
2022/05/02 05:52:47;;;;;;;14.50;11.02;;;;;;;13.21;nan;99506.75;4979974;28;20212;-71
2022/05/02 05:55:22;;;;;;;20.23;14.65;;;;;;;13.20;nan;99508.53;4959364;28;20665;-73
2022/05/02 05:58:14;;;;;;;21.77;15.60;;;;;;;13.43;nan;99506.81;4972063;28;20460;-71
2022/05/02 06:00:44;;;;;;;20.80;16.80;;;;;;;13.87;nan;99507.78;4973115;28;20774;-71
2022/05/02 06:03:14;;;;;;;18.08;14.15;;;;;;;14.16;nan;99502.00;4982505;28;20200;-71
2022/05/02 06:05:41;;;;;;;26.60;18.30;;;;;;;14.44;nan;99507.69;4967923;28;20282;-72
2022/05/02 06:08:13;;;;;;;22.25;18.15;;;;;;;14.71;nan;99500.16;4971375;28;20290;-71
2022/05/02 06:10:40;;;;;;;20.40;16.92;;;;;;;14.95;nan;99507.88;4974733;28;20207;-71
2022/05/02 06:13:07;;;;;;;24.95;18.25;;;;;;;15.14;nan;99501.88;4982965;28;20235;-71
2022/05/02 06:18:30;;;;;;;25.40;19.23;;;;;;;15.73;nan;99502.22;4983008;28;20242;-73
2022/05/02 06:21:05;;;;;;;21.77;17.30;;;;;;;15.93;nan;99499.53;4968646;28;20231;-72
2022/05/02 06:23:42;;;;;;;21.20;18.23;;;;;;;16.08;nan;99491.19;4972535;28;20194;-71
2022/05/02 06:26:09;;;;;;;23.27;18.52;;;;;;;16.10;nan;99494.56;4968783;28;20198;-74
2022/05/02 06:28:43;;;;;;;21.05;17.05;;;;;;;16.00;nan;99483.91;4973623;28;20247;-72
2022/05/02 06:31:29;;;;;;;32.03;19.67;;;;;;;16.13;nan;99489.81;4973708;28;20239;-72
2022/05/02 06:33:57;;;;;;;20.97;17.40;;;;;;;16.29;nan;99491.09;4967076;28;20665;-73
2022/05/02 06:36:56;;;;;;;21.05;17.80;;;;;;;16.45;nan;99483.44;4980739;28;20488;-71
2022/05/02 06:39:43;;;;;;;21.27;17.80;;;;;;;16.58;nan;99493.78;4977953;28;20194;-72
2022/05/02 06:42:38;;;;;;;21.52;17.70;;;;;;;16.91;nan;99489.06;4982803;28;21023;-72
2022/05/02 06:45:16;;;;;;;21.33;16.47;;;;;;;17.17;nan;99478.69;4976449;28;20244;-73
2022/05/02 06:47:41;;;;;;;20.97;18.77;;;;;;;17.43;nan;99485.03;4987180;28;20457;-72
2022/05/02 06:50:07;;;;;;;20.53;16.60;;;;;;;17.56;nan;99478.59;4974785;28;21121;-72
2022/05/02 06:52:45;;;;;;;23.33;17.60;;;;;;;17.17;nan;99481.31;4981336;28;20207;-74
2022/05/02 06:55:29;;;;;;;21.87;19.57;;;;;;;16.85;nan;99479.84;4976376;28;20186;-72
2022/05/02 06:58:38;;;;;;;19.20;16.00;;;;;;;16.93;nan;99465.88;4985778;28;20449;-71
2022/05/02 07:01:25;;;;;;;20.30;17.40;;;;;;;17.25;nan;99476.13;4977456;28;20435;-71
2022/05/02 07:04:03;;;;;;;23.77;18.60;;;;;;;17.28;nan;99470.53;4964198;28;20442;-72
2022/05/02 07:07:02;;;;;;;21.60;19.37;;;;;;;17.20;nan;99471.28;4982680;28;20757;-73
2022/05/02 07:09:43;;;;;;;24.73;19.30;;;;;;;17.11;nan;99476.59;4983010;28;20450;-72
2022/05/02 07:12:25;;;;;;;19.87;17.07;;;;;;;17.10;nan;99474.94;4978507;28;20443;-73
2022/05/02 07:15:10;;;;;;;19.53;17.50;;;;;;;17.22;nan;99476.44;4970011;28;20433;-72
2022/05/02 07:17:42;;;;;;;22.47;18.77;;;;;;;17.41;nan;99472.88;4974910;28;20483;-73
2022/05/02 07:20:16;;;;;;;20.50;16.90;;;;;;;17.60;nan;99474.63;4963926;28;20440;-72
2022/05/02 07:22:54;;;;;;;22.23;17.83;;;;;;;17.72;nan;99473.47;4975819;28;20439;-73
2022/05/02 07:25:20;;;;;;;20.30;16.07;;;;;;;18.09;nan;99472.59;4963096;28;20510;-73
2022/05/02 07:28:06;;;;;;;18.60;15.60;;;;;;;18.37;nan;99473.41;4967675;28;20549;-74
2022/05/02 07:30:32;;;;;;;22.13;16.10;;;;;;;18.62;nan;99463.84;4965294;28;20740;-74
2022/05/02 07:33:00;;;;;;;18.40;15.40;;;;;;;18.66;nan;99467.03;4973458;28;20508;-72
2022/05/02 07:35:26;;;;;;;13.97;12.47;;;;;;;18.82;nan;99469.84;4961551;28;21177;-71
2022/05/02 07:37:53;;;;;;;15.30;13.27;;;;;;;19.17;nan;99473.44;4967736;28;20494;-72
2022/05/02 07:40:20;;;;;;;15.43;13.70;;;;;;;19.26;nan;99469.84;4964208;28;20451;-74
2022/05/02 07:42:46;;;;;;;14.17;12.20;;;;;;;19.54;nan;99470.50;4974734;28;20483;-72
2022/05/02 07:45:14;;;;;;;15.80;13.80;;;;;;;19.94;nan;99469.06;4963966;28;20601;-74
2022/05/02 07:47:43;;;;;;;16.10;14.13;;;;;;;20.19;nan;99469.13;4965725;28;20389;-73
2022/05/02 07:50:10;;;;;;;15.43;13.63;;;;;;;19.98;nan;99475.75;4973219;28;20443;-72
2022/05/02 07:52:39;;;;;;;15.00;13.30;;;;;;;19.92;nan;99470.22;4979357;28;20533;-73
2022/05/02 07:55:07;;;;;;;15.80;12.87;;;;;;;19.99;nan;99461.41;4966828;28;20435;-73
2022/05/02 07:57:36;;;;;;;14.83;13.43;;;;;;;20.29;nan;99464.50;4970291;28;20437;-71
2022/05/02 08:00:07;;;;;;;16.00;14.33;;;;;;;20.30;nan;99468.81;4975816;28;20445;-72
2022/05/02 08:02:37;;;;;;;17.63;13.70;;;;;;;20.16;nan;99472.13;4968375;28;20440;-72
2022/05/02 08:05:06;;;;;;;15.33;13.70;;;;;;;20.17;nan;99463.13;4959497;28;20446;-71
2022/05/02 08:07:43;;;;;;;15.83;13.90;;;;;;;20.26;nan;99468.31;4966710;28;20616;-71
2022/05/02 08:10:35;;;;;;;17.73;14.57;;;;;;;20.54;nan;99465.38;4971349;28;20426;-74
2022/05/02 08:13:36;;;;;;;17.23;13.87;;;;;;;20.26;nan;99462.16;4970575;28;20491;-75
2022/05/02 08:16:05;;;;;;;13.63;12.20;;;;;;;20.23;nan;99457.97;4966495;28;20842;-73
2022/05/02 08:18:59;;;;;;;12.60;11.30;;;;;;;20.03;nan;99456.56;4969224;28;20493;-72
2022/05/02 08:21:31;;;;;;;14.13;12.00;;;;;;;20.24;nan;99464.13;4972823;28;20683;-73
2022/05/02 08:27:51;;;;;;;17.27;10.93;;;;;;;20.06;nan;99451.78;4949522;28;20829;-72
2022/05/02 08:30:24;;;;;;;12.73;11.30;;;;;;;20.33;nan;99447.16;4959872;28;20824;-73
2022/05/02 08:33:15;;;;;;;13.00;11.13;;;;;;;20.43;nan;99447.00;4974543;28;21231;-71
2022/05/02 08:35:49;;;;;;;14.37;12.80;;;;;;;20.61;nan;99442.38;4959752;28;20925;-74
2022/05/02 08:38:32;;;;;;;15.60;12.73;;;;;;;20.76;nan;99443.38;4961571;28;20969;-74
2022/05/02 08:41:28;;;;;;;21.50;15.10;;;;;;;20.81;nan;99440.19;4962464;28;21022;-73
2022/05/02 08:44:11;;;;;;;15.53;14.03;;;;;;;20.73;nan;99438.38;4960801;28;20453;-73
2022/05/02 08:46:58;;;;;;;15.57;13.90;;;;;;;20.36;nan;99440.66;4964829;28;20418;-72
2022/05/02 08:49:32;;;;;;;15.97;13.60;;;;;;;19.78;nan;99442.34;4961111;28;20464;-73
2022/05/02 08:52:16;;;;;;;15.50;12.90;;;;;;;19.59;nan;99436.22;4961756;28;20451;-75
2022/05/02 08:54:52;;;;;;;14.60;11.90;;;;;;;19.54;nan;99433.22;4966977;28;21086;-72
2022/05/02 08:57:48;;;;;;;13.27;11.13;;;;;;;19.45;nan;99434.16;4955265;28;20497;-72
2022/05/02 09:00:51;;;;;;;16.20;10.67;;;;;;;19.58;nan;99437.25;4969784;28;20406;-73
2022/05/02 09:03:42;;;;;;;11.93;10.73;;;;;;;19.52;nan;99442.34;4966179;28;20490;-72
2022/05/02 09:06:44;;;;;;;13.67;11.70;;;;;;;19.52;nan;99440.50;4975917;28;20410;-73
2022/05/02 09:09:28;;;;;;;14.90;9.83;;;;;;;19.53;nan;99433.38;4971073;28;20446;-70
2022/05/02 09:12:15;;;;;;;12.97;11.63;;;;;;;19.69;nan;99435.31;4965480;28;20435;-72
2022/05/02 09:15:11;;;;;;;14.27;10.47;;;;;;;19.38;nan;99433.13;4963744;28;20450;-71
2022/05/02 09:17:58;;;;;;;11.53;10.43;;;;;;;19.44;nan;99433.34;4969433;28;21035;-72
2022/05/02 09:20:24;;;;;;;14.93;11.60;;;;;;;19.42;nan;99421.19;4965685;28;20769;-73
2022/05/02 09:23:29;;;;;;;14.43;12.93;;;;;;;19.57;nan;99424.06;4968833;28;20428;-74
2022/05/02 09:25:58;;;;;;;14.43;12.43;;;;;;;19.76;nan;99423.84;4971682;28;20239;-70
2022/05/02 09:28:50;;;;;;;15.17;13.57;;;;;;;19.87;nan;99415.56;4963460;28;20848;-72
2022/05/02 09:31:25;;;;;;;17.93;13.40;;;;;;;19.84;nan;99412.38;4966110;28;20932;-71
2022/05/02 09:34:19;;;;;;;12.97;11.70;;;;;;;19.82;nan;99417.03;4967188;28;20418;-73
2022/05/02 09:37:03;;;;;;;14.10;11.63;;;;;;;19.96;nan;99420.91;4968521;28;20934;-72
2022/05/02 09:40:07;;;;;;;14.80;13.27;;;;;;;20.13;nan;99409.28;4980154;28;21063;-71
2022/05/02 09:42:48;;;;;;;13.17;11.97;;;;;;;20.27;nan;99411.28;4976153;28;20940;-71
2022/05/02 09:51:24;;;;;;;12.80;11.50;;;;;;;20.15;nan;99403.78;4968428;28;20440;-71
2022/05/02 09:54:02;;;;;;;16.00;14.33;;;;;;;20.26;nan;99395.47;4966568;28;21084;-70
2022/05/02 09:56:43;;;;;;;17.00;14.90;;;;;;;20.34;nan;99393.63;4973987;28;20450;-70
2022/05/02 09:59:17;;;;;;;15.43;13.90;;;;;;;20.28;nan;99388.13;4965645;28;20411;-72
2022/05/02 10:01:47;;;;;;;15.87;14.17;;;;;;;20.30;nan;99383.47;4971540;28;20938;-71
2022/05/02 10:04:47;;;;;;;16.47;11.37;;;;;;;20.36;nan;99382.81;4966873;28;20477;-71
2022/05/02 10:07:18;;;;;;;15.23;13.33;;;;;;;20.33;nan;99383.13;4973615;28;20464;-73
2022/05/02 10:09:48;;;;;;;16.57;13.03;;;;;;;20.54;nan;99374.66;4959513;28;20453;-71
2022/05/02 10:12:29;;;;;;;13.00;11.70;;;;;;;20.61;nan;99372.16;4971250;28;20792;-71
2022/05/02 10:15:17;;;;;;;15.63;11.63;;;;;;;20.71;nan;99371.00;4969592;28;20799;-72
2022/05/02 10:18:18;;;;;;;13.70;12.20;;;;;;;20.82;nan;99372.47;4960678;28;20449;-75
2022/05/02 10:21:18;;;;;;;13.50;11.70;;;;;;;21.03;nan;99363.06;4962576;28;20419;-73
2022/05/02 10:24:16;;;;;;;14.87;12.43;;;;;;;21.19;nan;99360.34;4962218;28;20913;-71
2022/05/02 10:26:49;;;;;;;15.45;13.15;;;;;;;21.25;nan;99362.34;4974646;28;20449;-74
2022/05/02 10:29:44;;;;;;;14.23;11.47;;;;;;;21.39;nan;99359.00;4969481;28;20274;-73
2022/05/02 10:32:48;;;;;;;14.27;10.43;;;;;;;21.56;nan;99350.91;4975503;28;20538;-71
2022/05/02 10:35:16;;;;;;;14.73;10.50;;;;;;;21.63;nan;99349.19;4972916;28;20874;-71
2022/05/02 10:37:49;;;;;;;13.47;12.07;;;;;;;21.73;nan;99338.28;4970271;28;20448;-73
2022/05/02 10:40:17;;;;;;;10.93;9.20;;;;;;;21.66;nan;99335.47;4979869;28;20460;-71
2022/05/02 10:42:51;;;;;;;13.07;10.30;;;;;;;21.79;nan;99341.09;4965606;28;20477;-70
2022/05/02 10:45:17;;;;;;;9.90;9.00;;;;;;;21.67;nan;99339.81;4960313;28;20919;-71
2022/05/02 10:47:59;;;;;;;11.53;9.13;;;;;;;21.55;nan;99331.38;4973298;28;20918;-73
2022/05/02 10:50:32;;;;;;;11.57;10.13;;;;;;;21.58;nan;99327.50;4974922;28;20806;-72
2022/05/02 10:53:27;;;;;;;11.63;9.63;;;;;;;21.61;nan;99325.31;4969845;28;20541;-73
2022/05/02 10:56:18;;;;;;;9.67;8.77;;;;;;;21.62;nan;99320.78;4960812;28;20471;-71
2022/05/02 10:58:45;;;;;;;10.40;8.53;;;;;;;21.70;nan;99323.41;4961050;28;20526;-73
2022/05/02 11:01:29;;;;;;;11.80;9.33;;;;;;;21.68;nan;99313.91;4976532;28;20809;-71
2022/05/02 11:03:57;;;;;;;10.03;9.03;;;;;;;21.66;nan;99314.09;4971935;28;20920;-71
2022/05/02 11:07:00;;;;;;;9.60;8.60;;;;;;;21.63;nan;99309.09;4959349;28;20466;-72
2022/05/02 11:09:39;;;;;;;9.07;8.23;;;;;;;21.57;nan;99312.47;4972581;28;20423;-71
2022/05/02 11:12:10;;;;;;;9.00;8.10;;;;;;;21.52;nan;99306.81;4970323;28;20436;-72
2022/05/02 11:15:01;;;;;;;8.00;7.30;;;;;;;21.46;nan;99312.88;4960803;28;20446;-74
2022/05/02 11:18:07;;;;;;;8.60;7.70;;;;;;;21.28;nan;99302.38;4967687;28;20469;-72
2022/05/02 11:20:54;;;;;;;7.17;6.37;;;;;;;21.20;nan;99297.94;4973622;28;20444;-71
2022/05/02 11:23:30;;;;;;;10.93;8.07;;;;;;;21.23;nan;99297.59;4963395;28;20973;-72
2022/05/02 11:26:27;;;;;;;8.97;8.07;;;;;;;21.30;nan;99295.88;4970410;28;21242;-71
2022/05/02 11:29:18;;;;;;;9.33;8.13;;;;;;;21.28;nan;99287.22;4970596;28;20496;-73
2022/05/02 11:32:04;;;;;;;9.07;8.17;;;;;;;21.37;nan;99285.31;4937325;28;20432;-71
2022/05/02 11:34:44;;;;;;;7.53;6.73;;;;;;;21.45;nan;99288.00;4960919;28;20541;-72
2022/05/02 11:37:20;;;;;;;7.73;7.00;;;;;;;21.49;nan;99283.94;4963596;28;20475;-73
2022/05/02 11:39:55;;;;;;;8.77;7.87;;;;;;;21.47;nan;99285.13;4962874;28;20458;-73
2022/05/02 11:42:22;;;;;;;7.90;7.07;;;;;;;21.37;nan;99290.66;4963308;28;20454;-71
2022/05/02 11:45:17;;;;;;;10.60;9.50;;;;;;;21.23;nan;99278.06;4959984;28;20489;-72
2022/05/02 11:47:53;;;;;;;9.40;8.50;;;;;;;21.11;nan;99277.59;4968638;28;20480;-73
2022/05/02 11:50:24;;;;;;;8.30;6.33;;;;;;;21.08;nan;99273.44;4967036;28;20434;-71
2022/05/02 11:52:52;;;;;;;6.27;5.77;;;;;;;21.10;nan;99268.75;4973229;28;20503;-72
2022/05/02 11:55:25;;;;;;;7.73;6.83;;;;;;;21.08;nan;99273.44;4942863;28;20427;-70
2022/05/02 11:57:55;;;;;;;7.00;6.40;;;;;;;21.07;nan;99274.44;4968725;28;20481;-71
2022/05/02 12:00:29;;;;;;;7.70;6.90;;;;;;;21.15;nan;99265.56;4968621;28;20465;-74
2022/05/02 12:03:18;;;;;;;7.63;6.93;;;;;;;21.24;nan;99266.34;4973778;28;20929;-72
2022/05/02 12:05:52;;;;;;;7.23;6.57;;;;;;;21.26;nan;99267.84;4962877;28;20488;-73
2022/05/02 12:08:32;;;;;;;10.23;9.33;;;;;;;21.32;nan;99266.31;4970579;28;20495;-73
2022/05/02 12:11:08;;;;;;;15.40;7.83;;;;;;;21.38;nan;99266.47;4963698;28;20432;-72
2022/05/02 12:13:40;;;;;;;6.73;6.13;;;;;;;21.38;nan;99268.31;4969598;28;20448;-73
2022/05/02 12:16:14;;;;;;;7.37;6.03;;;;;;;21.47;nan;99261.94;4966012;28;20421;-73
2022/05/02 12:18:54;;;;;;;7.73;6.10;;;;;;;21.51;nan;99255.22;4967659;28;20502;-70
2022/05/02 12:21:31;;;;;;;6.53;5.83;;;;;;;21.54;nan;99262.03;4968112;28;20486;-73
2022/05/02 12:23:58;;;;;;;6.83;6.13;;;;;;;21.56;nan;99257.34;4970356;28;20446;-71
2022/05/02 12:26:24;;;;;;;6.77;6.17;;;;;;;21.55;nan;99243.16;4964023;28;20921;-72
2022/05/02 12:28:53;;;;;;;7.40;6.13;;;;;;;21.55;nan;99256.53;4962925;28;20445;-74
2022/05/02 12:31:26;;;;;;;8.33;7.50;;;;;;;21.49;nan;99245.69;4976974;28;20872;-70
2022/05/02 12:34:03;;;;;;;7.87;7.17;;;;;;;21.41;nan;99251.91;4963727;28;20988;-71
2022/05/02 12:36:43;;;;;;;8.17;7.47;;;;;;;21.34;nan;99246.44;4960568;28;20470;-71
2022/05/02 12:39:13;;;;;;;9.03;6.90;;;;;;;21.38;nan;99242.41;4962957;28;20442;-74
2022/05/02 12:41:49;;;;;;;7.07;6.37;;;;;;;21.40;nan;99243.09;4965963;28;20439;-71
2022/05/02 12:44:16;;;;;;;7.67;6.50;;;;;;;21.41;nan;99250.09;4967096;28;20642;-71